Terminal Aerodrome Forecast
Issued by NWS

Home | Current Version | Previous Version | Text Only | Print | Product List | Glossary On
Versions: 1 2 3 4 5 6 7 8 9 10 11 12 13 14
000
FTUS44 KBMX 271135
TAFTCL
TAF
KTCL 271135Z 2712/2812 18004KT P6SM BKN012 BKN018 OVC030
     FM271430 19006KT P6SM BKN025 BKN035
     FM271700 20010KT P6SM VCTS SCT045CB
     FM280200 23006KT P6SM SCT045=

USA.gov is the U.S. government's official web portal to all federal, state and local government web resources and services.